createdAt,value
2023-05-20T00:01:22.871Z,63.56
2023-05-20T00:03:51.060Z,64.39
2023-05-20T00:06:19.027Z,64.58
2023-05-20T00:08:48.288Z,66.52
2023-05-20T00:11:16.151Z,67.10
2023-05-20T00:13:44.099Z,67.20
2023-05-20T00:16:11.992Z,68.81
2023-05-20T00:18:39.874Z,68.77
2023-05-20T00:21:07.799Z,69.30
2023-05-20T00:23:35.749Z,68.61
2023-05-20T00:26:05.348Z,70.07
2023-05-20T00:28:33.145Z,69.97
2023-05-20T00:31:01.007Z,71.41
2023-05-20T00:33:28.912Z,70.84
2023-05-20T00:35:56.784Z,71.30
2023-05-20T00:38:24.728Z,70.69
2023-05-20T00:40:52.550Z,70.44
2023-05-20T00:43:22.740Z,70.36
2023-05-20T00:45:51.090Z,70.61
2023-05-20T00:48:19.829Z,69.88
2023-05-20T00:50:48.533Z,69.81
2023-05-20T00:53:18.296Z,71.58
2023-05-20T00:55:46.663Z,71.44
2023-05-20T00:58:14.585Z,71.10
2023-05-20T01:00:44.295Z,72.06
2023-05-20T01:03:12.688Z,73.46
2023-05-20T01:05:42.257Z,73.37
2023-05-20T01:08:10.756Z,73.03
2023-05-20T01:10:43.127Z,72.32
2023-05-20T01:13:15.732Z,69.71
2023-05-20T01:15:48.474Z,71.26
2023-05-20T01:18:18.584Z,69.03
2023-05-20T01:20:51.037Z,68.95
2023-05-20T01:23:20.354Z,69.74
2023-05-20T01:25:48.355Z,69.43
2023-05-20T01:28:18.024Z,69.79
2023-05-20T01:30:53.561Z,68.80
2023-05-20T01:33:24.839Z,68.92
2023-05-20T01:35:52.841Z,70.49
2023-05-20T01:38:24.630Z,71.97
2023-05-20T01:40:53.319Z,72.50
2023-05-20T01:43:22.446Z,71.76
2023-05-20T01:45:50.364Z,73.39
2023-05-20T01:48:18.272Z,72.57
2023-05-20T01:50:46.232Z,72.10
2023-05-20T01:53:14.173Z,72.13
2023-05-20T01:55:44.379Z,72.76
2023-05-20T01:58:12.459Z,73.84
2023-05-20T02:00:40.482Z,74.61
2023-05-20T02:03:08.572Z,74.87
2023-05-20T02:05:37.469Z,73.67
2023-05-20T02:08:06.904Z,73.72
2023-05-20T02:10:34.745Z,72.26
2023-05-20T02:13:03.889Z,73.28
2023-05-20T02:15:32.514Z,74.38
2023-05-20T02:18:00.534Z,72.64
2023-05-20T02:20:28.796Z,72.34
2023-05-20T02:22:56.598Z,72.46
2023-05-20T02:25:24.515Z,72.97
2023-05-20T02:27:52.304Z,70.66
2023-05-20T02:30:22.890Z,71.69
2023-05-20T02:32:51.217Z,71.02
2023-05-20T02:35:19.262Z,71.89
2023-05-20T02:37:48.415Z,71.76
2023-05-20T02:40:17.278Z,71.97
2023-05-20T02:42:45.149Z,72.02
2023-05-20T02:45:13.249Z,72.56
2023-05-20T02:47:42.446Z,73.34
2023-05-20T02:50:11.373Z,74.56
2023-05-20T02:52:39.979Z,74.92
2023-05-20T02:55:08.729Z,75.20
2023-05-20T02:57:38.217Z,76.14
2023-05-20T03:00:11.488Z,75.86
2023-05-20T03:02:39.450Z,76.92
2023-05-20T03:05:10.882Z,76.61
2023-05-20T03:07:38.944Z,76.83
2023-05-20T03:10:09.383Z,76.95
2023-05-20T03:12:39.932Z,77.54
2023-05-20T03:15:11.955Z,76.72
2023-05-20T03:17:49.084Z,76.88
2023-05-20T03:20:18.702Z,77.87
2023-05-20T03:22:46.572Z,78.94
2023-05-20T03:25:14.864Z,79.07
2023-05-20T03:27:43.008Z,80.17
2023-05-20T03:30:12.564Z,79.67
2023-05-20T03:32:40.604Z,79.65
2023-05-20T03:35:09.740Z,80.52
2023-05-20T03:37:39.803Z,79.70
2023-05-20T03:40:10.223Z,79.63
2023-05-20T03:42:38.923Z,79.16
2023-05-20T03:45:08.605Z,78.48
2023-05-20T03:47:43.813Z,78.07
2023-05-20T03:50:12.038Z,78.42
2023-05-20T03:52:41.890Z,78.19
2023-05-20T03:55:10.886Z,78.32
2023-05-20T03:57:38.925Z,78.46
2023-05-20T04:00:11.928Z,78.40
2023-05-20T04:02:44.146Z,78.48
2023-05-20T04:05:14.865Z,78.40
2023-05-20T04:07:44.580Z,78.12
2023-05-20T04:10:13.917Z,77.43
2023-05-20T04:12:42.555Z,78.12
2023-05-20T04:15:11.705Z,78.74
2023-05-20T04:17:50.531Z,79.23
2023-05-20T04:20:19.239Z,78.63
2023-05-20T04:22:48.547Z,80.65
2023-05-20T04:25:16.910Z,80.73
2023-05-20T04:27:44.891Z,82.23
2023-05-20T04:30:13.921Z,82.07
2023-05-20T04:32:42.709Z,82.48
2023-05-20T04:35:13.589Z,84.51
2023-05-20T04:37:48.019Z,84.22
2023-05-20T04:40:19.149Z,83.74
2023-05-20T04:42:47.640Z,85.65
2023-05-20T04:45:16.693Z,86.82
2023-05-20T04:47:46.062Z,86.78
2023-05-20T04:50:14.832Z,87.84
2023-05-20T04:52:45.407Z,87.80
2023-05-20T04:55:15.455Z,86.83
2023-05-20T04:57:45.519Z,87.00
2023-05-20T05:00:14.234Z,85.37
2023-05-20T05:02:42.151Z,85.66
2023-05-20T05:05:10.510Z,84.03
2023-05-20T05:07:39.412Z,83.31
2023-05-20T05:10:07.965Z,85.18
2023-05-20T05:12:35.850Z,85.29
2023-05-20T05:15:07.492Z,85.70
2023-05-20T05:17:35.342Z,83.16
2023-05-20T05:20:03.471Z,83.75
2023-05-20T05:22:36.804Z,85.29
2023-05-20T05:25:05.020Z,84.23
2023-05-20T05:27:33.009Z,84.14
2023-05-20T05:30:02.069Z,81.53
2023-05-20T05:32:32.012Z,82.49
2023-05-20T05:35:00.191Z,78.99
2023-05-20T05:37:29.449Z,81.67
2023-05-20T05:39:57.553Z,79.58
2023-05-20T05:42:25.406Z,77.94
2023-05-20T05:44:53.487Z,78.65
2023-05-20T05:47:22.740Z,79.47
2023-05-20T05:49:52.909Z,81.00
2023-05-20T05:52:20.782Z,80.72
2023-05-20T05:54:48.956Z,81.75
2023-05-20T05:57:16.858Z,82.22
2023-05-20T05:59:44.783Z,81.45
2023-05-20T06:02:14.552Z,78.04
2023-05-20T06:04:42.736Z,78.57
2023-05-20T06:07:11.997Z,78.12
2023-05-20T06:09:40.339Z,82.11
2023-05-20T06:12:09.004Z,79.73
2023-05-20T06:14:36.924Z,78.96
2023-05-20T06:17:06.279Z,77.76
2023-05-20T06:19:39.956Z,76.92
2023-05-20T06:22:07.974Z,78.62
2023-05-20T06:24:37.573Z,78.43
2023-05-20T06:27:05.875Z,77.83
2023-05-20T06:29:33.784Z,76.75
2023-05-20T06:32:04.694Z,79.54
2023-05-20T06:34:32.795Z,77.09
2023-05-20T06:37:00.972Z,78.02
2023-05-20T06:39:29.475Z,78.14
2023-05-20T06:41:58.834Z,76.88
2023-05-20T06:44:32.529Z,77.94
2023-05-20T06:47:18.839Z,78.61
2023-05-20T06:49:48.967Z,78.43
2023-05-20T06:52:20.268Z,76.90
2023-05-20T06:54:48.307Z,78.71
2023-05-20T06:57:18.124Z,78.28
2023-05-20T06:59:46.437Z,75.94
2023-05-20T07:02:15.616Z,75.44
2023-05-20T07:04:44.095Z,77.85
2023-05-20T07:07:12.609Z,76.88
2023-05-20T07:09:40.585Z,75.45
2023-05-20T07:12:09.322Z,74.50
2023-05-20T07:14:41.647Z,74.29
2023-05-20T07:17:12.355Z,76.38
2023-05-20T07:19:43.373Z,76.41
2023-05-20T07:22:11.715Z,76.81
2023-05-20T07:24:55.245Z,75.89
2023-05-20T07:27:23.409Z,77.60
2023-05-20T07:29:52.573Z,77.97
2023-05-20T07:32:21.724Z,75.56
2023-05-20T07:34:49.546Z,75.87
2023-05-20T07:37:17.340Z,75.44
2023-05-20T07:39:46.199Z,74.50
2023-05-20T07:42:14.059Z,75.77
2023-05-20T07:44:45.445Z,75.24
2023-05-20T07:47:15.190Z,73.62
2023-05-20T07:49:44.426Z,74.92
2023-05-20T07:52:12.309Z,74.72
2023-05-20T07:54:40.314Z,74.22
2023-05-20T07:57:08.930Z,75.31
2023-05-20T07:59:36.770Z,74.72
2023-05-20T08:02:04.696Z,72.93
2023-05-20T08:04:35.153Z,74.29
2023-05-20T08:07:03.170Z,74.86
2023-05-20T08:09:41.498Z,72.41
2023-05-20T08:12:09.418Z,72.82
2023-05-20T08:14:38.966Z,72.44
2023-05-20T08:17:07.036Z,74.04
2023-05-20T08:19:36.435Z,72.78
2023-05-20T08:22:04.360Z,72.99
2023-05-20T08:24:33.299Z,72.81
2023-05-20T08:27:01.205Z,72.20
2023-05-20T08:29:28.962Z,70.76
2023-05-20T08:31:58.753Z,71.51
2023-05-20T08:34:28.296Z,73.47
2023-05-20T08:36:58.217Z,71.09
2023-05-20T08:39:27.123Z,71.73
2023-05-20T08:41:55.309Z,72.87
2023-05-20T08:44:25.558Z,71.93
2023-05-20T08:46:54.356Z,72.90
2023-05-20T08:49:22.582Z,72.72
2023-05-20T08:51:50.648Z,72.40
2023-05-20T08:54:20.933Z,71.29
2023-05-20T08:56:49.114Z,72.51
2023-05-20T08:59:19.125Z,71.74
2023-05-20T09:01:46.956Z,70.31
2023-05-20T09:04:14.833Z,70.74
2023-05-20T09:06:46.041Z,71.71
2023-05-20T09:09:14.006Z,71.02
2023-05-20T09:11:43.504Z,70.06
2023-05-20T09:14:11.692Z,71.39
2023-05-20T09:16:41.505Z,71.53
2023-05-20T09:19:09.879Z,69.73
2023-05-20T09:21:39.028Z,70.80
2023-05-20T09:24:07.739Z,68.50
2023-05-20T09:26:36.085Z,71.23
2023-05-20T09:29:05.305Z,69.75
2023-05-20T09:31:34.144Z,68.33
2023-05-20T09:34:02.881Z,68.29
2023-05-20T09:36:31.901Z,68.36
2023-05-20T09:39:05.172Z,69.56
2023-05-20T09:41:37.086Z,68.88
2023-05-20T09:44:06.804Z,70.28
2023-05-20T09:46:35.491Z,70.23
2023-05-20T09:49:06.764Z,68.68
2023-05-20T09:51:35.368Z,67.65
2023-05-20T09:54:05.063Z,68.35
2023-05-20T09:56:34.432Z,68.88
2023-05-20T09:59:03.665Z,68.00
2023-05-20T10:01:33.004Z,68.89
2023-05-20T10:04:01.829Z,68.12
2023-05-20T10:06:49.668Z,68.05
2023-05-20T10:09:33.586Z,66.92
2023-05-20T10:12:11.336Z,66.84
2023-05-20T10:14:48.664Z,66.16
2023-05-20T10:17:22.763Z,66.00
2023-05-20T10:19:51.336Z,65.25
2023-05-20T10:22:28.933Z,65.72
2023-05-20T10:25:00.293Z,66.33
2023-05-20T10:27:33.868Z,64.62
2023-05-20T10:30:01.767Z,65.09
2023-05-20T10:32:33.196Z,67.81
2023-05-20T10:35:06.244Z,67.92
2023-05-20T10:37:35.444Z,67.27
2023-05-20T10:40:12.200Z,69.16
2023-05-20T10:42:44.972Z,68.76
2023-05-20T10:45:13.384Z,69.83
2023-05-20T10:47:55.888Z,68.20
2023-05-20T10:50:35.129Z,67.64
2023-05-20T10:53:09.385Z,66.71
2023-05-20T10:55:40.059Z,66.69
2023-05-20T10:58:08.312Z,67.73
2023-05-20T11:00:36.979Z,69.48
2023-05-20T11:03:07.956Z,67.36
2023-05-20T11:05:36.408Z,67.27
2023-05-20T11:08:13.653Z,65.48
2023-05-20T11:10:52.429Z,66.86
2023-05-20T11:13:20.276Z,66.72
2023-05-20T11:15:50.957Z,65.78
2023-05-20T11:18:20.511Z,65.56
2023-05-20T11:20:48.529Z,65.42
2023-05-20T11:23:16.933Z,65.44
2023-05-20T11:25:44.742Z,64.63
2023-05-20T11:28:14.820Z,65.82
2023-05-20T11:30:43.699Z,63.96
2023-05-20T11:33:15.939Z,65.06
2023-05-20T11:35:48.790Z,65.08
2023-05-20T11:38:29.674Z,62.92
2023-05-20T11:40:57.898Z,65.52
2023-05-20T11:43:26.182Z,65.06
2023-05-20T11:45:55.811Z,63.75
2023-05-20T11:48:24.679Z,62.61
2023-05-20T11:50:55.156Z,64.33
2023-05-20T11:53:25.277Z,64.11
2023-05-20T11:55:55.013Z,64.52
2023-05-20T11:58:23.966Z,64.56
2023-05-20T12:00:57.107Z,63.66
2023-05-20T12:03:30.265Z,63.82
2023-05-20T12:06:02.377Z,64.45
2023-05-20T12:08:30.685Z,64.12
2023-05-20T12:10:58.496Z,64.33
2023-05-20T12:13:26.521Z,64.51
2023-05-20T12:15:54.326Z,63.06
2023-05-20T12:18:23.141Z,63.77
2023-05-20T12:20:51.148Z,64.70
2023-05-20T12:23:21.373Z,63.45
2023-05-20T12:25:50.070Z,64.05
2023-05-20T12:28:18.230Z,66.54
2023-05-20T12:30:46.208Z,65.22
2023-05-20T12:33:14.071Z,66.39
2023-05-20T12:35:44.804Z,64.60
2023-05-20T12:38:12.709Z,63.38
2023-05-20T12:40:41.867Z,62.97
2023-05-20T12:43:10.054Z,63.10
2023-05-20T12:45:37.837Z,64.11
2023-05-20T12:48:07.199Z,65.76
2023-05-20T12:50:35.467Z,63.38
2023-05-20T12:53:03.531Z,63.57
2023-05-20T12:55:31.316Z,65.75
2023-05-20T12:58:00.532Z,63.92
2023-05-20T13:00:29.089Z,61.75
2023-05-20T13:02:57.025Z,62.87
2023-05-20T13:05:24.985Z,60.10
2023-05-20T13:07:52.945Z,61.85
2023-05-20T13:10:21.023Z,61.45
2023-05-20T13:12:48.899Z,59.40
2023-05-20T13:15:20.552Z,62.36
2023-05-20T13:17:50.771Z,61.68
2023-05-20T13:20:19.895Z,58.91
2023-05-20T13:22:47.958Z,56.96
2023-05-20T13:25:15.932Z,57.66
2023-05-20T13:27:43.815Z,58.73
2023-05-20T13:30:12.389Z,58.18
2023-05-20T13:32:41.806Z,55.80
2023-05-20T13:35:10.240Z,56.65
2023-05-20T13:37:38.220Z,53.57
2023-05-20T13:40:07.378Z,50.78
2023-05-20T13:42:35.303Z,50.58
2023-05-20T13:45:03.186Z,51.73
2023-05-20T13:47:31.340Z,51.63
2023-05-20T13:50:02.597Z,50.24
2023-05-20T13:52:31.193Z,52.32
2023-05-20T13:54:59.017Z,52.44
2023-05-20T13:57:26.976Z,53.42
2023-05-20T13:59:54.755Z,53.59
2023-05-20T14:02:22.530Z,54.26
2023-05-20T14:04:50.353Z,55.08
2023-05-20T14:07:19.663Z,54.30
2023-05-20T14:09:47.552Z,54.05
2023-05-20T14:12:15.359Z,55.42
2023-05-20T14:14:43.227Z,56.49
2023-05-20T14:17:11.369Z,56.89
2023-05-20T14:19:39.519Z,57.50
2023-05-20T14:22:07.504Z,57.09
2023-05-20T14:24:36.661Z,58.43
2023-05-20T14:27:04.608Z,58.65
2023-05-20T14:29:32.461Z,58.69
2023-05-20T14:32:01.446Z,59.21
2023-05-20T14:34:29.358Z,58.66
2023-05-20T14:36:57.171Z,58.89
2023-05-20T14:39:24.987Z,59.67
2023-05-20T14:41:54.309Z,58.87
2023-05-20T14:44:24.523Z,58.58
2023-05-20T14:46:52.466Z,59.37
2023-05-20T14:49:20.233Z,60.15
2023-05-20T14:51:48.271Z,61.12
2023-05-20T14:54:16.444Z,60.80
2023-05-20T14:56:44.271Z,60.06
2023-05-20T14:59:13.615Z,60.18
2023-05-20T15:01:41.423Z,60.13
2023-05-20T15:04:09.268Z,59.33
2023-05-20T15:06:37.381Z,59.75
2023-05-20T15:09:06.623Z,61.25
2023-05-20T15:11:34.551Z,61.57
2023-05-20T15:14:02.422Z,60.60
2023-05-20T15:16:31.798Z,61.88
2023-05-20T15:18:59.644Z,62.02
2023-05-20T15:21:27.501Z,62.16
2023-05-20T15:23:55.453Z,62.12
2023-05-20T15:26:23.389Z,61.91
2023-05-20T15:28:51.357Z,62.36
2023-05-20T15:31:19.326Z,62.77
2023-05-20T15:33:48.882Z,62.37
2023-05-20T15:36:16.898Z,61.94
2023-05-20T15:38:45.021Z,62.07
2023-05-20T15:41:14.551Z,62.72
2023-05-20T15:43:42.650Z,61.70
2023-05-20T15:46:10.617Z,62.66
2023-05-20T15:48:39.253Z,62.00
2023-05-20T15:51:08.379Z,63.51
2023-05-20T15:53:37.152Z,63.59
2023-05-20T15:56:07.922Z,63.78
2023-05-20T15:58:35.708Z,63.41
2023-05-20T16:01:03.804Z,64.07
2023-05-20T16:03:32.132Z,62.74
2023-05-20T16:06:00.040Z,63.05
2023-05-20T16:08:30.330Z,62.57
2023-05-20T16:10:58.163Z,63.02
2023-05-20T16:13:26.142Z,62.63
2023-05-20T16:15:57.762Z,64.89
2023-05-20T16:18:25.993Z,63.81
2023-05-20T16:20:53.829Z,64.21
2023-05-20T16:23:21.742Z,64.52
2023-05-20T16:25:51.272Z,64.44
2023-05-20T16:28:19.273Z,64.82
2023-05-20T16:30:47.144Z,64.26
2023-05-20T16:33:14.865Z,64.41
2023-05-20T16:35:42.654Z,63.91
2023-05-20T16:38:11.180Z,63.51
2023-05-20T16:40:39.060Z,63.56
2023-05-20T16:43:08.337Z,62.97
2023-05-20T16:45:36.799Z,62.87
2023-05-20T16:48:05.092Z,63.59
2023-05-20T16:50:33.164Z,63.29
2023-05-20T16:53:01.123Z,63.65
2023-05-20T16:55:28.933Z,64.34
2023-05-20T16:57:56.713Z,64.09
2023-05-20T17:00:25.960Z,64.42
2023-05-20T17:02:53.825Z,65.25
2023-05-20T17:05:21.679Z,65.32
2023-05-20T17:07:49.987Z,68.00
2023-05-20T17:10:17.908Z,67.06
2023-05-20T17:12:48.588Z,67.98
2023-05-20T17:15:16.430Z,66.35
2023-05-20T17:17:45.608Z,65.96
2023-05-20T17:20:14.234Z,67.11
2023-05-20T17:22:42.135Z,68.18
2023-05-20T17:25:10.827Z,67.98
2023-05-20T17:27:38.807Z,68.35
2023-05-20T17:30:07.776Z,68.34
2023-05-20T17:32:35.726Z,67.75
2023-05-20T17:35:05.814Z,68.16
2023-05-20T17:37:33.666Z,67.39
2023-05-20T17:40:01.578Z,68.62
2023-05-20T17:42:29.438Z,68.35
2023-05-20T17:44:57.216Z,67.41
2023-05-20T17:47:25.216Z,68.43
2023-05-20T17:49:53.288Z,68.15
2023-05-20T17:52:22.406Z,67.70
2023-05-20T17:54:50.270Z,69.24
2023-05-20T17:57:18.950Z,70.33
2023-05-20T17:59:47.224Z,70.00
2023-05-20T18:02:15.175Z,70.25
2023-05-20T18:04:42.983Z,71.05
2023-05-20T18:07:10.821Z,69.66
2023-05-20T18:09:40.560Z,69.40
2023-05-20T18:12:09.211Z,70.02
2023-05-20T18:14:37.128Z,71.48
2023-05-20T18:17:05.196Z,70.93
2023-05-20T18:19:33.857Z,70.17
2023-05-20T18:22:02.746Z,71.15
2023-05-20T18:24:31.051Z,70.86
2023-05-20T18:27:00.200Z,71.76
2023-05-20T18:29:28.074Z,72.04
2023-05-20T18:31:55.954Z,71.98
2023-05-20T18:34:24.013Z,71.84
2023-05-20T18:36:51.964Z,73.57
2023-05-20T18:39:21.086Z,73.13
2023-05-20T18:41:49.215Z,73.07
2023-05-20T18:44:19.978Z,73.81
2023-05-20T18:46:47.980Z,74.00
2023-05-20T18:49:15.952Z,74.59
2023-05-20T18:51:43.803Z,74.21
2023-05-20T18:54:11.579Z,75.32
2023-05-20T18:56:40.078Z,75.48
2023-05-20T18:59:07.927Z,76.50
2023-05-20T19:01:37.172Z,77.01
2023-05-20T19:04:05.202Z,76.10
2023-05-20T19:06:35.216Z,76.40
2023-05-20T19:09:03.642Z,77.09
2023-05-20T19:11:34.452Z,78.03
2023-05-20T19:14:04.100Z,79.65
2023-05-20T19:16:32.943Z,79.23
2023-05-20T19:19:02.319Z,79.72
2023-05-20T19:21:30.734Z,79.38
2023-05-20T19:23:58.761Z,81.14
2023-05-20T19:26:26.767Z,80.42
2023-05-20T19:29:00.075Z,80.96
2023-05-20T19:31:28.001Z,82.75
2023-05-20T19:33:55.885Z,81.52
2023-05-20T19:36:25.132Z,81.35
2023-05-20T19:38:53.074Z,82.41
2023-05-20T19:41:21.212Z,83.92
2023-05-20T19:43:49.015Z,84.31
2023-05-20T19:46:17.130Z,84.51
2023-05-20T19:48:44.945Z,84.70
2023-05-20T19:51:12.859Z,84.97
2023-05-20T19:53:42.199Z,87.74
2023-05-20T19:56:09.986Z,87.83
2023-05-20T19:58:37.820Z,86.48
2023-05-20T20:01:06.705Z,87.20
2023-05-20T20:03:35.006Z,87.58
2023-05-20T20:06:04.006Z,89.06
2023-05-20T20:08:32.162Z,89.57
2023-05-20T20:11:01.349Z,91.31
2023-05-20T20:13:30.465Z,91.64
2023-05-20T20:15:58.982Z,91.28
2023-05-20T20:18:27.065Z,91.78
2023-05-20T20:20:56.087Z,91.39
2023-05-20T20:23:23.895Z,92.55
2023-05-20T20:25:51.803Z,91.20
2023-05-20T20:28:21.020Z,92.45
2023-05-20T20:30:48.791Z,92.53
2023-05-20T20:33:16.696Z,92.50
2023-05-20T20:35:44.584Z,91.57
2023-05-20T20:38:14.930Z,91.36
2023-05-20T20:40:42.932Z,91.55
2023-05-20T20:43:20.506Z,91.72
2023-05-20T20:45:53.029Z,91.34
2023-05-20T20:48:26.571Z,92.49
2023-05-20T20:50:54.526Z,93.63
2023-05-20T20:53:22.343Z,93.98
2023-05-20T20:55:51.227Z,94.50
2023-05-20T20:58:19.349Z,94.17
2023-05-20T21:00:48.560Z,93.88
2023-05-20T21:03:18.465Z,94.62
2023-05-20T21:05:46.202Z,94.85
2023-05-20T21:08:14.072Z,94.63
2023-05-20T21:10:41.884Z,93.67
2023-05-20T21:13:09.648Z,94.66
2023-05-20T21:15:37.669Z,94.09
2023-05-20T21:18:05.588Z,93.86
2023-05-20T21:20:34.712Z,95.21
2023-05-20T21:23:02.449Z,93.62
2023-05-20T21:25:30.284Z,94.19
2023-05-20T21:27:58.174Z,94.67
2023-05-20T21:30:26.022Z,95.57
2023-05-20T21:32:53.884Z,95.02
2023-05-20T21:35:21.728Z,95.04
2023-05-20T21:37:51.780Z,95.67
2023-05-20T21:40:19.610Z,96.30
2023-05-20T21:42:48.816Z,95.94
2023-05-20T21:45:17.521Z,95.71
2023-05-20T21:47:46.243Z,96.43
2023-05-20T21:50:14.076Z,97.37
2023-05-20T21:52:41.983Z,97.59
2023-05-20T21:55:11.452Z,97.57
2023-05-20T21:57:39.388Z,97.85
2023-05-20T22:00:11.391Z,97.82
2023-05-20T22:02:39.308Z,97.21
2023-05-20T22:05:07.471Z,96.94
2023-05-20T22:07:35.267Z,97.66
2023-05-20T22:10:03.682Z,99.09
2023-05-20T22:12:35.801Z,98.67
2023-05-20T22:15:03.728Z,97.88
2023-05-20T22:17:34.097Z,97.79
2023-05-20T22:20:04.584Z,98.21
2023-05-20T22:22:32.405Z,98.09
2023-05-20T22:25:00.145Z,98.52
2023-05-20T22:27:28.181Z,97.83
2023-05-20T22:29:57.404Z,98.84
2023-05-20T22:32:25.289Z,99.62
2023-05-20T22:34:53.492Z,98.94
2023-05-20T22:37:21.894Z,98.54
2023-05-20T22:39:49.680Z,98.27
2023-05-20T22:42:17.693Z,99.65
2023-05-20T22:44:45.479Z,99.72
2023-05-20T22:47:16.534Z,99.82
2023-05-20T22:49:44.664Z,100.00
2023-05-20T22:52:12.831Z,100.00
2023-05-20T22:54:40.563Z,100.00
2023-05-20T22:57:12.089Z,100.00
2023-05-20T22:59:40.406Z,100.00
2023-05-20T23:02:08.689Z,100.00
2023-05-20T23:04:37.974Z,100.00
2023-05-20T23:07:06.448Z,100.00
2023-05-20T23:09:37.393Z,100.00
2023-05-20T23:12:05.894Z,100.00
2023-05-20T23:14:35.639Z,100.00
2023-05-20T23:17:03.515Z,100.00
2023-05-20T23:19:31.439Z,100.00
2023-05-20T23:22:01.388Z,100.00
2023-05-20T23:24:29.125Z,100.00
2023-05-20T23:26:56.976Z,100.00
2023-05-20T23:29:24.821Z,100.00
2023-05-20T23:31:52.627Z,100.00
2023-05-20T23:34:20.406Z,100.00
2023-05-20T23:36:48.220Z,100.00
2023-05-20T23:39:18.475Z,100.00
2023-05-20T23:41:46.607Z,100.00
2023-05-20T23:44:14.481Z,100.00
2023-05-20T23:46:42.886Z,100.00
2023-05-20T23:49:12.226Z,100.00
2023-05-20T23:51:40.104Z,100.00
2023-05-20T23:54:08.024Z,100.00
2023-05-20T23:56:37.202Z,100.00
2023-05-20T23:59:04.935Z,100.00
